WHISKEYTOWN DAM (USBR) (WHI)

Elevation: 1210' · SACRAMENTO R basin · Operator: US Bureau of Reclamation

Provisional data, subject to change.
Query executed Sunday at 15:53:50   clock

Select a sensor type for a plot of data.
Note: Reservoir Flows are daily averages.

Earlier

Date RES ELE    STORAGE    RES CHG    OUTFLOW    INFLOW    EVAP    RIV REL    PPT INC    RAIN    SPILL    DIS PWR   
 FEET   AF   AF   CFS   CFS   CFS   CFS   INCHES   INCHES   CFS   CFS  
01/03/2015 1198.92 206919 589 195 494 2 181 0.00 30.91 0 14
01/04/2015 1198.92 206919 0 208 208 0 181 0.00 30.91 0 27
01/05/2015 1199.06 207333 414 267 476 0 181 0.00 30.91 0 86
01/06/2015 1198.99 207126 -207 490 388 2 181 0.00 30.91 0 309
01/07/2015 1199.00 207155 29 195 211 1 181 0.00 30.91 0 14
01/08/2015 1199.00 207155 0 195 198 3 181 0.00 30.91 0 14
01/09/2015 1198.99 207126 -29 196 183 2 181 0.00 30.91 0 15
01/10/2015 1198.99 207126 0 195 197 2 181 0.00 30.91 0 14
01/11/2015 1198.96 207037 -89 198 155 2 181 0.00 30.91 0 17
01/12/2015 1198.95 207008 -29 195 181 1 181 0.00 30.91 0 14
01/13/2015 1198.92 206919 -89 196 152 1 181 0.00 30.91 0 15
01/14/2015 1198.88 206801 -118 559 501 1 181 0.00 30.91 0 378
01/15/2015 1198.85 206713 -88 198 155 1 181 0.00 30.91 0 17
01/16/2015 1198.85 206713 0 204 204 0 181 0.24 31.15 0 23
01/17/2015 1198.82 206625 -88 197 153 0 181 0.24 31.39 0 16
01/18/2015 1198.85 206713 88 195 239 0 181 0.37 31.76 0 14
01/19/2015 1198.84 206684 -29 197 182 0 181 0.37 32.13 0 16
01/20/2015 1198.95 207008 324 274 437 0 181 0.09 32.22 0 93
01/21/2015 1198.92 206919 -89 195 151 1 181 0.00 32.22 0 14
01/22/2015 1198.89 206831 -88 195 152 1 181 0.00 32.22 0 14
01/23/2015 1198.58 205918 -913 554 94 0 181 0.00 32.22 0 373
01/24/2015 1198.36 205270 -648 469 142 0 181 0.00 32.22 0 288
01/25/2015 1198.33 205181 -89 195 150 0 181 0.00 32.22 0 14
01/26/2015 1198.29 205063 -118 195 146 10 181 0.00 32.22 0 14
01/27/2015 1198.36 205270 207 195 300 1 181 0.00 32.22 0 14
01/28/2015 1198.33 205181 -89 195 150 0 181 0.00 32.22 0 14
01/29/2015 1198.27 205004 -177 200 114 3 181 0.00 32.22 0 19
01/30/2015 1198.21 204828 -176 197 109 1 181 0.00 32.22 0 16
01/31/2015 1198.14 204621 -207 196 95 3 181 0.00 32.22 0 15
02/01/2015 -- -- -- -- -- -- -- -- -- -- --

Later | Latest

Warning! This data is preliminary and subject to revision.

Show WHI Map | Plot WHI Data | 1 Month WHI Data | Real-Time WHI Data | WHI Info